| time (UTC) | temp F | wind direction | speed MPH | gust MPH | rain 1hr in | rain 24hr in | rain mn in | humidity % | barometer mb |
| 20260507132529 | 56 | 315 | 2.0 | 4.0 | 0.00 | 0.14 | 0.09 | 41 | 1017.4 |
| 20260507131522 | 55 | 180 | 4.0 | 7.0 | 0.00 | 0.14 | 0.09 | 41 | 1017.7 |
| 20260507130520 | 55 | 135 | 5.0 | 7.0 | 0.00 | 0.14 | 0.09 | 43 | 1017.6 |
| 20260507125514 | 53 | 270 | 7.0 | 9.0 | 0.00 | 0.14 | 0.09 | 47 | 1017.7 |
| 20260507124511 | 53 | 270 | 4.0 | 5.0 | 0.00 | 0.14 | 0.09 | 46 | 1017.7 |
| 20260507123508 | 53 | 270 | 4.0 | 6.0 | 0.00 | 0.14 | 0.09 | 48 | 1017.6 |
| 20260507122505 | 52 | 135 | 4.0 | 6.0 | 0.00 | 0.14 | 0.09 | 48 | 1018.0 |
| 20260507121623 | 52 | 225 | 4.0 | 5.0 | 0.00 | 0.14 | 0.09 | 48 | 1017.7 |
| 20260507120601 | 50 | 225 | 3.0 | 4.0 | 0.00 | 0.14 | 0.09 | 50 | 1017.7 |
| 20260507115552 | 51 | 248 | 6.0 | 8.0 | 0.00 | 0.14 | 0.09 | 48 | 1017.7 |
| 20260507114547 | 51 | 248 | 4.0 | 6.0 | 0.00 | 0.14 | 0.09 | 50 | 1017.8 |
| 20260507113546 | 51 | 225 | 4.0 | 7.0 | 0.00 | 0.14 | 0.09 | 49 | 1017.5 |
| 20260507112539 | 50 | 270 | 4.0 | 6.0 | 0.00 | 0.14 | 0.09 | 50 | 1017.7 |
| 20260507111536 | 50 | 225 | 3.0 | 4.0 | 0.00 | 0.14 | 0.09 | 50 | 1017.6 |
| 20260507110528 | 51 | 45 | 2.0 | 4.0 | 0.00 | 0.14 | 0.09 | 49 | 1017.8 |
| 20260507105550 | 51 | 180 | 8.0 | 9.0 | 0.00 | 0.14 | 0.09 | 50 | 1017.4 |
| 20260507104542 | 50 | 225 | 7.0 | 9.0 | 0.00 | 0.14 | 0.09 | 51 | 1017.4 |
| 20260507103516 | 51 | 135 | 6.0 | 8.0 | 0.00 | 0.14 | 0.09 | 51 | 1017.4 |
| 20260507102512 | 51 | 180 | 7.0 | 8.0 | 0.00 | 0.14 | 0.09 | 51 | 1017.4 |
| 20260507101532 | 51 | 225 | 6.0 | 8.0 | 0.00 | 0.14 | 0.09 | 52 | 1017.3 |
| 20260507100506 | 51 | 315 | 5.0 | 7.0 | 0.00 | 0.14 | 0.09 | 52 | 1017.2 |
| 20260507095503 | 50 | 270 | 6.0 | 10.0 | 0.00 | 0.14 | 0.09 | 53 | 1017.3 |
| 20260507094501 | 50 | 248 | 9.0 | 11.0 | 0.00 | 0.14 | 0.09 | 55 | 1017.0 |
| 20260507093453 | 49 | 270 | 6.0 | 9.0 | 0.00 | 0.14 | 0.09 | 55 | 1017.1 |
| 20260507092447 | 50 | 225 | 9.0 | 11.0 | 0.00 | 0.14 | 0.09 | 57 | 1016.9 |
| 20260507091443 | 50 | 203 | 4.0 | 6.0 | 0.00 | 0.14 | 0.09 | 59 | 1017.0 |
| 20260507090439 | 49 | 180 | 8.0 | 11.0 | 0.00 | 0.14 | 0.09 | 59 | 1017.1 |
| 20260507085436 | 48 | 225 | 6.0 | 7.0 | 0.00 | 0.14 | 0.09 | 60 | 1017.2 |
| 20260507084452 | 48 | 225 | 5.0 | 7.0 | 0.00 | 0.14 | 0.09 | 61 | 1016.9 |
| 20260507083427 | 47 | 135 | 7.0 | 10.0 | 0.00 | 0.14 | 0.09 | 62 | 1016.8 |
| 20260507082422 | 47 | 45 | 4.0 | 7.0 | 0.00 | 0.14 | 0.09 | 62 | 1016.8 |
| 20260507081416 | 46 | 270 | 4.0 | 6.0 | 0.00 | 0.15 | 0.09 | 62 | 1016.9 |
| 20260507080415 | 46 | 225 | 8.0 | 9.0 | 0.00 | 0.17 | 0.09 | 63 | 1016.6 |
| 20260507075412 | 46 | 225 | 5.0 | 6.0 | 0.00 | 0.18 | 0.09 | 63 | 1016.5 |
| 20260507074408 | 45 | 225 | 4.0 | 7.0 | 0.00 | 0.19 | 0.09 | 69 | 1016.3 |
| 20260507073403 | 45 | 180 | 5.0 | 7.0 | 0.00 | 0.19 | 0.09 | 70 | 1016.4 |
| 20260507072358 | 45 | 180 | 7.0 | 8.0 | 0.00 | 0.19 | 0.09 | 71 | 1016.3 |
| 20260507071354 | 44 | 180 | 4.0 | 7.0 | 0.00 | 0.19 | 0.09 | 72 | 1016.2 |
| 20260507070351 | 44 | 225 | 4.0 | 7.0 | 0.00 | 0.19 | 0.09 | 75 | 1016.1 |
| 20260507065346 | 43 | 270 | 6.0 | 8.0 | 0.00 | 0.19 | 0.09 | 78 | 1016.0 |
| 20260507064342 | 42 | 180 | 6.0 | 8.0 | 0.00 | 0.19 | 0.09 | 80 | 1016.0 |
| 20260507063332 | 42 | 180 | 4.0 | 6.0 | 0.00 | 0.19 | 0.09 | 81 | 1016.0 |
| 20260507062351 | 41 | 135 | 4.0 | 6.0 | 0.00 | 0.19 | 0.09 | 81 | 1016.2 |
| 20260507061328 | 41 | 225 | 4.0 | 6.0 | 0.00 | 0.19 | 0.09 | 82 | 1016.2 |
| 20260507060344 | 41 | 270 | 5.0 | 8.0 | 0.00 | 0.19 | 0.09 | 82 | 1015.9 |
| 20260507055319 | 40 | 180 | 4.0 | 7.0 | 0.00 | 0.19 | 0.09 | 82 | 1015.9 |
| 20260507054356 | 40 | 225 | 8.0 | 11.0 | 0.00 | 0.19 | 0.09 | 82 | 1015.9 |
| 20260507053312 | 40 | 225 | 4.0 | 8.0 | 0.00 | 0.19 | 0.09 | 82 | 1015.6 |
| 20260507052329 | 40 | 270 | 8.0 | 9.0 | 0.00 | 0.20 | 0.09 | 82 | 1015.9 |
| 20260507051304 | 40 | 180 | 5.0 | 8.0 | 0.00 | 0.20 | 0.09 | 82 | 1015.6 |
| 20260507050357 | 40 | 248 | 8.0 | 11.0 | 0.00 | 0.20 | 0.09 | 82 | 1015.4 |
| 20260507045357 | 40 | 180 | 6.0 | 9.0 | 0.00 | 0.20 | 0.09 | 82 | 1015.3 |
| 20260507044350 | 40 | 225 | 6.0 | 9.0 | 0.00 | 0.20 | 0.09 | 82 | 1015.5 |
| 20260507043346 | 40 | 315 | 8.0 | 11.0 | 0.00 | 0.20 | 0.09 | 82 | 1015.3 |
| 20260507042338 | 40 | 180 | 6.0 | 8.0 | 0.00 | 0.20 | 0.09 | 82 | 1015.3 |
| 20260507041339 | 40 | 225 | 5.0 | 7.0 | 0.00 | 0.20 | 0.09 | 82 | 1014.9 |
| 20260507040332 | 40 | 180 | 4.0 | 4.0 | 0.00 | 0.20 | 0.09 | 82 | 1015.0 |
| 20260507035327 | 40 | 180 | 4.0 | 5.0 | 0.00 | 0.20 | 0.09 | 82 | 1014.9 |
| 20260507034320 | 40 | 225 | 5.0 | 7.0 | 0.00 | 0.21 | 0.09 | 82 | 1014.9 |
| 20260507033341 | 40 | 270 | 5.0 | 7.0 | 0.00 | 0.21 | 0.09 | 82 | 1014.9 |
| 20260507032315 | 40 | 225 | 3.0 | 4.0 | 0.00 | 0.21 | 0.09 | 82 | 1015.0 |
| 20260507031312 | 40 | 270 | 7.0 | 8.0 | 0.00 | 0.22 | 0.09 | 82 | 1014.7 |
| 20260507030310 | 40 | 225 | 8.0 | 11.0 | 0.00 | 0.22 | 0.09 | 82 | 1014.9 |
| 20260507025307 | 40 | 225 | 5.0 | 8.0 | 0.00 | 0.24 | 0.09 | 83 | 1014.5 |
| 20260507024301 | 40 | 225 | 8.0 | 10.0 | 0.00 | 0.24 | 0.09 | 83 | 1014.3 |
| 20260507023256 | 40 | 180 | 6.0 | 11.0 | 0.00 | 0.25 | 0.09 | 83 | 1014.4 |
| 20260507022252 | 40 | 315 | 4.0 | 8.0 | 0.00 | 0.25 | 0.09 | 84 | 1014.4 |
| 20260507021249 | 40 | 248 | 5.0 | 8.0 | 0.00 | 0.25 | 0.09 | 84 | 1014.4 |
| 20260507020242 | 39 | 225 | 6.0 | 11.0 | 0.00 | 0.25 | 0.09 | 84 | 1014.0 |
| 20260507015240 | 40 | 225 | 4.0 | 8.0 | 0.01 | 0.25 | 0.09 | 85 | 1014.1 |
| 20260507014233 | 40 | 225 | 5.0 | 8.0 | 0.01 | 0.26 | 0.09 | 85 | 1014.2 |
| 20260507013231 | 39 | 270 | 7.0 | 10.0 | 0.01 | 0.27 | 0.09 | 85 | 1014.0 |
| 20260507012224 | 40 | 90 | 7.0 | 9.0 | 0.01 | 0.27 | 0.09 | 85 | 1014.0 |
| 20260507011221 | 39 | 225 | 8.0 | 11.0 | 0.01 | 0.27 | 0.09 | 85 | 1014.0 |
| 20260507010213 | 39 | 225 | 5.0 | 7.0 | 0.01 | 0.27 | 0.09 | 85 | 1013.9 |
| 20260507005249 | 38 | 270 | 3.0 | 4.0 | 0.00 | 0.26 | 0.08 | 84 | 1014.0 |
| 20260507004206 | 38 | 180 | 1.0 | 2.0 | 0.00 | 0.26 | 0.08 | 84 | 1014.0 |
| 20260507003208 | 38 | 135 | 2.0 | 2.0 | 0.00 | 0.27 | 0.08 | 84 | 1014.0 |
| 20260507002305 | 39 | 270 | 7.0 | 10.0 | 0.00 | 0.27 | 0.08 | 84 | 1013.9 |
| 20260507001258 | 39 | 225 | 8.0 | 11.0 | 0.00 | 0.27 | 0.08 | 84 | 1014.0 |
| 20260507000255 | 39 | 135 | 3.0 | 4.0 | 0.01 | 0.27 | 0.08 | 84 | 1013.6 |
| 20260506235246 | 39 | 180 | 7.0 | 8.0 | 0.02 | 0.27 | 0.08 | 84 | 1013.7 |
| 20260506234244 | 39 | 270 | 6.0 | 11.0 | 0.05 | 0.27 | 0.08 | 83 | 1013.7 |
| 20260506233240 | 38 | 270 | 6.0 | 9.0 | 0.06 | 0.27 | 0.08 | 83 | 1013.5 |
| 20260506232235 | 38 | 180 | 3.0 | 4.0 | 0.07 | 0.27 | 0.08 | 83 | 1013.2 |
| 20260506231232 | 38 | 180 | 2.0 | 4.0 | 0.08 | 0.27 | 0.08 | 82 | 1013.4 |
| 20260506230228 | 38 | 135 | 1.0 | 2.0 | 0.07 | 0.26 | 0.07 | 82 | 1013.4 |
| 20260506225218 | 38 | 135 | 4.0 | 5.0 | 0.06 | 0.25 | 0.06 | 82 | 1013.4 |
| 20260506224219 | 39 | 225 | 6.0 | 8.0 | 0.05 | 0.22 | 0.04 | 81 | 1013.7 |
| 20260506223211 | 39 | 180 | 11.0 | 11.0 | 0.07 | 0.21 | 0.02 | 81 | 1013.7 |
| 20260506222211 | 39 | 180 | 4.0 | 6.0 | 0.06 | 0.20 | 0.01 | 80 | 1013.4 |
| 20260506221209 | 39 | 225 | 5.0 | 8.0 | 0.05 | 0.19 | 0.00 | 79 | 1013.6 |
| 20260506220226 | 39 | 90 | 2.0 | 4.0 | 0.05 | 0.19 | 0.00 | 77 | 1013.5 |
| 20260506215201 | 40 | 135 | 4.0 | 4.0 | 0.05 | 0.19 | 0.19 | 75 | 1013.4 |
| 20260506214151 | 40 | 45 | 4.0 | 5.0 | 0.04 | 0.18 | 0.18 | 73 | 1013.6 |
| 20260506213213 | 42 | 270 | 14.0 | 19.0 | 0.00 | 0.14 | 0.14 | 72 | 1013.3 |
| 20260506212144 | 42 | 270 | 6.0 | 8.0 | 0.00 | 0.14 | 0.14 | 72 | 1013.0 |
| 20260506211144 | 42 | 315 | 4.0 | 6.0 | 0.00 | 0.14 | 0.14 | 72 | 1013.0 |
| 20260506210140 | 42 | 135 | 6.0 | 8.0 | 0.00 | 0.14 | 0.14 | 72 | 1012.9 |
| 20260506205131 | 42 | 180 | 4.0 | 5.0 | 0.00 | 0.14 | 0.14 | 72 | 1012.8 |
| 20260506204127 | 42 | 180 | 3.0 | 4.0 | 0.00 | 0.14 | 0.14 | 72 | 1012.8 |
| 20260506203124 | 42 | 225 | 5.0 | 7.0 | 0.00 | 0.14 | 0.14 | 71 | 1012.9 |
| 20260506202119 | 43 | 248 | 6.0 | 9.0 | 0.00 | 0.14 | 0.14 | 71 | 1013.0 |
| 20260506201114 | 43 | 225 | 6.0 | 8.0 | 0.00 | 0.14 | 0.14 | 71 | 1012.7 |
| 20260506200109 | 42 | 135 | 6.0 | 9.0 | 0.00 | 0.14 | 0.14 | 71 | 1012.8 |
| 20260506195106 | 42 | 90 | 4.0 | 5.0 | 0.00 | 0.14 | 0.14 | 70 | 1012.8 |
| 20260506194104 | 42 | 45 | 4.0 | 4.0 | 0.00 | 0.14 | 0.14 | 70 | 1012.9 |
| 20260506193101 | 43 | 315 | 4.0 | 6.0 | 0.00 | 0.14 | 0.14 | 70 | 1012.9 |
| 20260506192053 | 43 | 180 | 6.0 | 8.0 | 0.00 | 0.14 | 0.14 | 68 | 1012.8 |
| 20260506191111 | 44 | 225 | 6.0 | 9.0 | 0.00 | 0.14 | 0.14 | 67 | 1012.8 |
| 20260506190047 | 44 | 225 | 8.0 | 10.0 | 0.00 | 0.14 | 0.14 | 66 | 1012.6 |
| 20260506185042 | 44 | 270 | 8.0 | 11.0 | 0.00 | 0.14 | 0.14 | 67 | 1012.6 |
| 20260506184040 | 45 | 270 | 4.0 | 7.0 | 0.00 | 0.14 | 0.14 | 67 | 1012.6 |
| 20260506183033 | 45 | 270 | 7.0 | 9.0 | 0.00 | 0.14 | 0.14 | 65 | 1012.4 |
| 20260506182028 | 45 | 225 | 6.0 | 8.0 | 0.00 | 0.14 | 0.14 | 64 | 1012.4 |
| 20260506181024 | 45 | 270 | 4.0 | 5.0 | 0.00 | 0.14 | 0.14 | 62 | 1012.4 |
| 20260506180022 | 46 | 315 | 7.0 | 9.0 | 0.00 | 0.14 | 0.14 | 54 | 1012.4 |
| 20260506175012 | 46 | 225 | 8.0 | 10.0 | 0.00 | 0.14 | 0.14 | 53 | 1012.4 |
| 20260506174052 | 48 | 225 | 6.0 | 9.0 | 0.00 | 0.14 | 0.14 | 52 | 1012.3 |
| 20260506173010 | 49 | 270 | 6.0 | 8.0 | 0.00 | 0.14 | 0.14 | 54 | 1012.2 |
| 20260506172007 | 47 | 180 | 6.0 | 8.0 | 0.00 | 0.14 | 0.14 | 53 | 1012.3 |
| 20260506171023 | 47 | 248 | 10.0 | 12.0 | 0.00 | 0.14 | 0.14 | 54 | 1012.2 |
| 20260506165953 | 47 | 225 | 8.0 | 10.0 | 0.00 | 0.14 | 0.14 | 54 | 1012.2 |
| 20260506164954 | 47 | 248 | 6.0 | 8.0 | 0.00 | 0.14 | 0.14 | 53 | 1012.3 |
| 20260506163949 | 47 | 225 | 7.0 | 8.0 | 0.00 | 0.14 | 0.14 | 53 | 1012.2 |
| 20260506162945 | 47 | 270 | 8.0 | 12.0 | 0.00 | 0.14 | 0.14 | 51 | 1012.2 |
| 20260506161938 | 48 | 225 | 5.0 | 8.0 | 0.00 | 0.14 | 0.14 | 51 | 1012.1 |
| 20260506160935 | 49 | 248 | 8.0 | 9.0 | 0.00 | 0.14 | 0.14 | 50 | 1012.3 |
| 20260506155950 | 51 | 0 | 8.0 | 11.0 | 0.00 | 0.14 | 0.14 | 49 | 1012.3 |
| 20260506154926 | 53 | 270 | 11.0 | 13.0 | 0.00 | 0.14 | 0.14 | 51 | 1012.5 |
| 20260506153920 | 50 | 225 | 8.0 | 10.0 | 0.00 | 0.14 | 0.14 | 54 | 1012.5 |
| 20260506152913 | 49 | 270 | 7.0 | 8.0 | 0.00 | 0.14 | 0.14 | 54 | 1012.6 |
| 20260506151934 | 48 | 315 | 4.0 | 6.0 | 0.00 | 0.14 | 0.14 | 54 | 1012.4 |
| 20260506150911 | 47 | 315 | 6.0 | 8.0 | 0.00 | 0.14 | 0.14 | 53 | 1012.6 |
| 20260506145908 | 47 | 248 | 8.0 | 11.0 | 0.00 | 0.14 | 0.14 | 52 | 1012.6 |
| 20260506145002 | 48 | 270 | 8.0 | 10.0 | 0.00 | 0.14 | 0.14 | 51 | 1012.4 |
| 20260506144002 | 51 | 225 | 6.0 | 8.0 | 0.00 | 0.14 | 0.14 | 52 | 1012.3 |
| 20260506142954 | 50 | 180 | 11.0 | 14.0 | 0.00 | 0.14 | 0.14 | 54 | 1012.3 |
| 20260506141949 | 49 | 270 | 15.0 | 17.0 | 0.00 | 0.14 | 0.14 | 57 | 1012.8 |
| 20260506141006 | 49 | 338 | 5.0 | 8.0 | 0.00 | 0.14 | 0.14 | 59 | 1012.7 |
| 20260506135941 | 47 | 225 | 10.0 | 11.0 | 0.00 | 0.14 | 0.14 | 58 | 1012.8 |
| 20260506134934 | 47 | 90 | 8.0 | 11.0 | 0.00 | 0.14 | 0.14 | 56 | 1012.8 |
| 20260506134004 | 48 | 270 | 8.0 | 10.0 | 0.00 | 0.14 | 0.14 | 55 | 1012.5 |